Latest Weather Observations for Perth

IDW60801

Issued at 1:05 pm WST Saturday 23 August 2014 (issued every 30 minutes, with the page automatically refreshed every 10 minutes)

About weather observations | Map of weather stations | Latest weather observations for WA | Other Formats
Station Details ID: 009225 Name: PERTH METRO Lat: -31.92 Lon: 115.87 Height: 24.9 m
Data from the previous 72 hours. | See also: Recent months at Perth
Date/Time
WST
Temp
°C
App
Temp
°C
Dew
Point
Rel
Hum
%
Delta-T
°C
Wind Press
QNH
hPa
Press
MSL
hPa
Rain
since 9 am
mm
Dir
 
Spd
km/h
Gust
km/h
Spd
kts
Gust
kts
23/01:00pm 20.5 17.4 5.7 38 7.3 W 11 19 6 10 1022.3 1022.3 0.0
23/12:30pm 20.7 17.4 6.3 39 7.2 NW 13 24 7 13 1022.6 1022.6 0.0
23/12:00pm 20.7 18.6 8.4 45 6.4 N 9 19 5 10 1023.0 1023.0 0.0
23/11:30am 19.7 16.8 6.4 42 6.7 N 11 19 6 10 1023.4 1023.4 0.0
23/11:00am 18.9 16.3 7.7 48 5.7 NE 11 20 6 11 1023.6 1023.6 0.0
23/10:30am 18.1 15.7 6.9 48 5.6 NE 9 17 5 9 1024.1 1024.1 0.0
23/10:00am 17.2 15.1 8.1 55 4.6 NE 9 11 5 6 1024.2 1024.2 0.0
23/09:30am 15.1 13.7 7.2 59 3.9 ENE 4 7 2 4 1024.5 1024.5 0.0
23/09:00am 13.4 11.7 7.6 68 2.8 E 6 9 3 5 1024.5 1024.5 0.0
23/08:30am 11.5 11.0 8.0 79 1.7 CALM 0 0 0 0 1024.4 1024.4 0.0
23/08:00am 9.7 9.0 8.5 92 0.6 SSW 2 6 1 3 1024.3 1024.3 0.0
23/07:30am 7.4 6.7 7.1 98 0.1 CALM 0 0 0 0 1023.8 1023.8 0.0
23/07:00am 6.7 5.9 6.3 97 0.2 CALM 0 0 0 0 1023.5 1023.5 0.0
23/06:30am 6.9 6.1 6.5 97 0.2 CALM 0 0 0 0 1023.4 1023.4 0.0
23/06:00am 7.2 6.1 6.8 97 0.2 SSW 2 7 1 4 1023.1 1023.1 0.0
23/05:30am 7.1 6.3 6.5 96 0.3 CALM 0 0 0 0 1022.8 1022.8 0.0
23/05:00am 7.6 6.9 7.0 96 0.3 CALM 0 0 0 0 1022.6 1022.6 0.0
23/04:30am 8.3 7.8 7.7 96 0.3 CALM 0 0 0 0 1022.5 1022.5 0.0
23/04:00am 8.7 7.1 8.1 96 0.3 SSW 6 7 3 4 1022.8 1022.8 0.0
23/03:30am 8.4 7.9 7.8 96 0.3 CALM 0 0 0 0 1023.0 1023.0 0.0
23/03:00am 8.3 7.8 7.7 96 0.3 CALM 0 0 0 0 1023.1 1023.1 0.0
23/02:30am 7.8 7.1 7.1 95 0.3 CALM 0 0 0 0 1023.2 1023.2 0.0
23/02:00am 8.2 7.6 7.4 95 0.4 CALM 0 0 0 0 1023.2 1023.2 0.0
23/01:30am 8.3 7.7 7.5 95 0.4 CALM 0 0 0 0 1023.4 1023.4 0.0
23/01:00am 8.6 8.0 7.5 93 0.5 CALM 0 0 0 0 1023.5 1023.5 0.0
23/12:30am 9.3 8.9 8.1 92 0.6 CALM 0 0 0 0 1023.5 1023.5 0.0
23/12:00am 10.0 9.7 8.6 91 0.7 SSW 0 0 0 0 1023.6 1023.6 0.0
 
Date/Time
WST
Temp
°C
App
Temp
°C
Dew
Point
Rel
Hum
%
Delta-T
°C
Wind Press
QNH
hPa
Press
MSL
hPa
Rain
since 9 am
mm
Dir
 
Spd
km/h
Gust
km/h
Spd
kts
Gust
kts
22/11:30pm 10.5 10.2 8.8 89 0.8 CALM 0 0 0 0 1023.9 1023.9 0.0
22/11:00pm 10.8 10.6 8.9 88 0.9 CALM 0 0 0 0 1024.1 1024.1 0.0
22/10:30pm 10.8 10.5 8.7 87 1.0 CALM 0 0 0 0 1024.2 1024.2 0.0
22/10:00pm 11.2 10.9 8.8 85 1.2 CALM 0 0 0 0 1024.4 1024.4 0.0
22/09:30pm 11.3 11.0 8.7 84 1.3 CALM 0 0 0 0 1024.6 1024.6 0.0
22/09:00pm 11.7 11.4 8.6 81 1.5 CALM 0 4 0 2 1024.7 1024.7 0.0
22/08:30pm 11.8 11.5 8.8 82 1.5 CALM 0 0 0 0 1024.4 1024.4 0.0
22/08:00pm 11.7 11.2 7.8 77 1.9 CALM 0 0 0 0 1024.1 1024.1 0.0
22/07:30pm 12.5 11.2 7.8 73 2.3 SSW 4 6 2 3 1023.7 1023.7 0.0
22/07:00pm 13.6 13.0 7.2 65 3.1 CALM 0 6 0 3 1023.3 1023.3 0.0
22/06:30pm 14.6 12.6 6.2 57 4.0 SSW 6 9 3 5 1023.0 1023.0 0.0
22/06:00pm 15.6 12.9 5.8 52 4.7 SSW 9 13 5 7 1022.6 1022.6 0.0
22/05:30pm 16.3 13.7 6.2 51 4.9 SSW 9 15 5 8 1022.4 1022.4 0.0
22/05:00pm 17.3 14.7 5.9 47 5.5 SW 9 13 5 7 1022.2 1022.2 0.0
22/04:30pm 18.2 15.5 5.4 43 6.2 SW 9 15 5 8 1022.1 1022.1 0.0
22/04:00pm 18.3 15.0 6.2 45 6.0 SW 13 19 7 10 1022.0 1022.0 0.0
22/03:30pm 19.2 15.9 6.3 43 6.4 WSW 13 19 7 10 1021.8 1021.8 0.0
22/03:00pm 18.8 15.3 5.6 42 6.4 SW 13 20 7 11 1021.7 1021.7 0.0
22/02:30pm 18.1 16.7 5.7 44 6.1 WSW 2 7 1 4 1021.6 1021.6 0.0
22/02:00pm 18.2 15.6 4.0 39 6.7 W 7 9 4 5 1021.7 1021.7 0.0
22/01:30pm 18.9 16.6 5.0 40 6.7 SE 6 9 3 5 1021.5 1021.5 0.0
22/01:00pm 18.6 16.2 5.1 41 6.5 SSW 7 17 4 9 1021.7 1021.7 0.0
22/12:30pm 17.9 15.2 5.5 44 6.0 SSE 9 17 5 9 1022.0 1022.0 0.0
22/12:00pm 17.8 14.9 6.7 48 5.5 S 11 17 6 9 1022.3 1022.3 0.0
22/11:30am 18.1 16.3 7.8 51 5.2 SSE 7 13 4 7 1022.3 1022.3 0.0
22/11:00am 17.2 14.5 7.5 53 4.9 SW 11 20 6 11 1022.5 1022.5 0.0
22/10:30am 17.1 15.2 7.7 54 4.7 SSE 7 13 4 7 1022.5 1022.5 0.0
22/10:00am 17.2 15.7 9.1 59 4.2 SSE 7 15 4 8 1022.4 1022.4 0.0
22/09:30am 16.1 15.4 10.0 67 3.2 E 4 9 2 5 1022.2 1022.2 0.0
22/09:00am 15.3 13.7 10.1 71 2.7 ESE 9 15 5 8 1022.0 1022.0 5.8
22/08:30am 17.0 14.2 6.8 51 5.1 SW 11 15 6 8 1021.5 1021.5 5.8
22/08:00am 15.8 13.7 6.0 52 4.7 WSW 6 9 3 5 1020.9 1020.9 5.8
22/07:30am 14.7 11.9 5.2 53 4.5 SW 9 15 5 8 1020.4 1020.4 5.8
22/07:00am 14.7 12.4 7.3 61 3.6 WSW 9 17 5 9 1019.9 1019.9 5.8
22/06:30am 14.8 12.5 7.6 62 3.6 SW 9 15 5 8 1019.4 1019.4 5.8
22/06:00am 15.6 13.1 8.1 61 3.8 WSW 11 24 6 13 1019.1 1019.1 5.8
22/05:30am 15.3 12.5 6.8 57 4.2 WSW 11 20 6 11 1018.7 1018.7 5.8
22/05:00am 15.4 12.1 8.2 62 3.6 WSW 15 24 8 13 1018.4 1018.4 5.8
22/04:30am 14.6 12.1 9.8 73 2.5 SW 13 22 7 12 1018.0 1018.0 5.8
22/04:00am 15.4 13.1 8.9 65 3.3 WSW 11 19 6 10 1017.7 1017.7 5.8
22/03:30am 15.5 12.9 9.4 67 3.2 WSW 13 26 7 14 1017.6 1017.6 5.8
22/03:00am 15.5 12.6 9.8 69 3.0 W 15 30 8 16 1017.6 1017.6 5.8
22/02:30am 15.6 12.3 10.8 73 2.6 WSW 19 30 10 16 1017.5 1017.5 5.8
22/02:00am 15.5 12.6 8.3 62 3.6 W 13 20 7 11 1017.2 1017.2 5.8
22/01:30am 15.1 12.6 8.3 64 3.4 W 11 19 6 10 1017.0 1017.0 5.8
22/01:00am 15.1 12.8 9.0 67 3.1 W 11 20 6 11 1016.9 1016.9 5.8
22/12:30am 15.4 12.8 9.5 68 3.1 W 13 22 7 12 1016.7 1016.7 5.8
22/12:00am 14.5 13.5 12.2 86 1.2 W 9 19 5 10 1016.3 1016.3 5.8
 
Date/Time
WST
Temp
°C
App
Temp
°C
Dew
Point
Rel
Hum
%
Delta-T
°C
Wind Press
QNH
hPa
Press
MSL
hPa
Rain
since 9 am
mm
Dir
 
Spd
km/h
Gust
km/h
Spd
kts
Gust
kts
21/11:30pm 14.4 12.7 12.3 87 1.1 W 13 20 7 11 1016.1 1016.1 5.8
21/11:00pm 14.5 12.7 12.2 86 1.2 W 13 30 7 16 1016.0 1016.0 5.0
21/10:30pm 16.1 14.6 11.9 76 2.3 W 11 26 6 14 1015.7 1015.7 4.4
21/10:00pm 15.6 14.7 12.5 82 1.7 NW 9 26 5 14 1015.7 1015.7 4.4
21/09:30pm 15.4 15.8 13.8 90 0.9 WSW 4 9 2 5 1015.6 1015.6 4.4
21/09:00pm 15.1 15.8 14.5 96 0.3 NW 4 7 2 4 1015.5 1015.5 4.4
21/08:30pm 15.2 16.0 14.7 97 0.3 N 4 9 2 5 1015.2 1015.2 4.4
21/08:00pm 15.3 16.4 14.7 96 0.3 N 2 6 1 3 1014.9 1014.9 3.6
21/07:30pm 15.3 15.6 14.5 95 0.5 NNW 6 9 3 5 1014.7 1014.7 3.6
21/07:00pm 15.3 16.4 14.5 95 0.5 NNW 2 9 1 5 1014.4 1014.3 3.4
21/06:30pm 15.0 16.3 14.2 95 0.5 CALM 0 6 0 3 1014.2 1014.1 3.4
21/06:00pm 15.1 16.0 14.0 93 0.6 NNW 2 7 1 4 1013.8 1013.7 3.4
21/05:30pm 15.1 15.0 13.8 92 0.7 NNW 7 11 4 6 1013.4 1013.3 3.4
21/05:00pm 15.1 14.8 14.3 95 0.5 WSW 9 15 5 8 1013.5 1013.4 3.4
21/04:30pm 15.2 14.8 14.1 93 0.6 NNW 9 15 5 8 1013.0 1012.9 2.6
21/04:00pm 15.2 14.8 14.2 94 0.6 WNW 9 19 5 10 1013.0 1012.9 2.4
21/03:30pm 15.9 14.2 14.6 92 0.7 W 17 28 9 15 1012.8 1012.7 2.2
21/03:00pm 16.8 16.2 14.6 87 1.3 W 11 22 6 12 1012.3 1012.2 1.4
21/02:30pm 18.9 16.5 12.6 67 3.5 WNW 17 33 9 18 1011.8 1011.8 0.2
21/02:00pm 19.6 16.7 11.1 58 4.7 WNW 17 32 9 17 1011.5 1011.5 0.2
21/01:30pm 20.1 17.4 11.8 59 4.6 NW 17 33 9 18 1011.4 1011.4 0.2
21/01:00pm 21.0 18.8 12.2 57 4.9 WNW 15 32 8 17 1011.6 1011.6 0.2
21/12:30pm 20.4 18.1 11.9 58 4.7 NW 15 30 8 16 1011.8 1011.8 0.2
21/12:00pm 20.6 18.2 11.5 56 5.0 NW 15 20 8 11 1012.1 1012.1 0.0
21/11:30am 20.2 17.5 11.7 58 4.7 W 17 28 9 15 1012.3 1012.2 0.0
21/11:00am 19.3 16.0 10.8 58 4.6 W 19 35 10 19 1012.6 1012.5 0.0
21/10:30am 20.0 17.2 11.5 58 4.7 W 17 28 9 15 1012.5 1012.4 0.0
21/10:00am 19.5 16.5 11.8 61 4.3 W 19 32 10 17 1012.3 1012.2 0.0
21/09:30am 19.4 17.7 13.6 69 3.3 W 15 28 8 15 1012.0 1012.0 0.0
21/09:00am 19.2 17.6 12.9 67 3.6 W 13 24 7 13 1011.5 1011.5 5.8
21/08:30am 18.7 18.5 14.8 78 2.3 W 9 17 5 9 1011.1 1011.1 5.8
21/08:00am 17.6 16.8 14.1 80 2.0 W 11 19 6 10 1010.9 1010.9 5.8
21/07:30am 17.3 16.3 15.6 90 1.0 W 15 24 8 13 1010.4 1010.4 5.8
21/07:00am 16.5 16.4 15.9 96 0.4 WNW 11 22 6 12 1009.8 1009.8 5.8
21/06:30am 16.2 15.1 15.2 94 0.6 NNW 15 30 8 16 1009.2 1009.2 4.8
21/06:00am 16.0 14.3 14.7 92 0.7 N 17 26 9 14 1008.4 1008.4 4.2
21/05:30am 16.1 14.6 14.3 89 1.0 N 15 26 8 14 1008.4 1008.4 4.0
21/05:00am 15.9 15.1 14.1 89 1.0 N 11 20 6 11 1008.6 1008.6 3.8
21/04:30am 16.4 15.0 13.3 82 1.7 N 13 20 7 11 1008.9 1008.9 3.6
21/04:00am 16.0 14.9 13.1 83 1.6 N 11 20 6 11 1009.0 1009.0 3.6
21/03:30am 16.0 14.9 13.1 83 1.6 N 11 19 6 10 1009.3 1009.3 3.6
21/03:00am 16.0 14.8 12.9 82 1.7 N 11 20 6 11 1009.9 1009.9 3.6
21/02:30am 15.6 14.4 12.9 84 1.5 N 11 17 6 9 1010.1 1010.1 3.6
21/02:00am 15.2 14.5 13.1 87 1.2 N 9 19 5 10 1010.5 1010.5 3.6
21/01:30am 15.0 13.8 12.9 87 1.2 N 11 17 6 9 1011.0 1011.0 3.6
21/01:00am 14.9 13.6 12.4 85 1.4 NNE 11 17 6 9 1011.2 1011.2 3.6
21/12:30am 14.7 13.3 12.2 85 1.4 N 11 19 6 10 1011.6 1011.6 3.6
21/12:00am 14.5 13.0 11.8 84 1.5 NNE 11 19 6 10 1012.1 1012.1 3.6
 
Date/Time
WST
Temp
°C
App
Temp
°C
Dew
Point
Rel
Hum
%
Delta-T
°C
Wind Press
QNH
hPa
Press
MSL
hPa
Rain
since 9 am
mm
Dir
 
Spd
km/h
Gust
km/h
Spd
kts
Gust
kts
20/11:30pm 14.5 13.3 11.5 82 1.6 N 9 15 5 8 1012.4 1012.3 3.6
20/11:00pm 14.7 13.1 11.5 81 1.7 N 11 17 6 9 1012.7 1012.6 3.6
20/10:30pm 14.4 13.2 11.6 83 1.5 NNE 9 15 5 8 1013.1 1013.0 3.6
20/10:00pm 14.5 12.9 11.6 83 1.6 NNE 11 15 6 8 1013.5 1013.4 3.6
20/09:30pm 14.7 13.9 11.7 82 1.6 NNE 7 13 4 7 1013.7 1013.6 3.6
20/09:00pm 15.2 14.1 12.0 81 1.7 NNE 9 17 5 9 1013.8 1013.7 3.6
20/08:30pm 15.1 14.5 12.2 83 1.6 N 7 11 4 6 1014.0 1013.9 3.6
20/08:00pm 15.4 14.8 12.2 81 1.7 N 7 13 4 7 1014.2 1014.1 3.6
20/07:30pm 15.5 15.0 12.1 80 1.9 N 6 9 3 5 1014.2 1014.1 3.6
20/07:00pm 16.0 15.6 12.4 79 2.0 N 6 7 3 4 1014.0 1013.9 3.6
20/06:30pm 16.1 15.6 12.1 77 2.2 N 6 7 3 4 1013.8 1013.7 3.6
20/06:00pm 16.8 17.0 11.9 73 2.7 N 2 7 1 4 1013.7 1013.6 3.6
20/05:30pm 17.4 16.7 12.1 71 2.9 NNW 7 13 4 7 1013.8 1013.7 3.6
20/05:00pm 17.8 16.3 11.8 68 3.3 NW 11 19 6 10 1013.8 1013.7 3.6
20/04:30pm 17.9 16.2 11.2 65 3.6 NNW 11 20 6 11 1013.7 1013.6 3.6
20/04:00pm 18.6 17.0 11.4 63 3.9 NNW 11 20 6 11 1013.9 1013.8 3.6
20/03:30pm 18.5 16.2 11.6 64 3.8 NW 15 26 8 14 1013.7 1013.6 3.6
20/03:00pm 18.8 17.4 12.3 66 3.6 NNW 11 22 6 12 1013.8 1013.7 3.6
20/02:30pm 18.0 17.3 13.3 74 2.7 NNW 9 19 5 10 1013.8 1013.7 3.6
20/02:00pm 17.1 16.7 14.2 83 1.7 NNW 9 17 5 9 1014.1 1014.0 3.6
20/01:30pm 16.2 16.0 14.6 90 0.9 N 9 17 5 9 1014.5 1014.4 3.6

Other Formats:

Comma delimited format used in spreadsheet applications
http://www.bom.gov.au/fwo/IDW60801/IDW60801.94608.axf

JavaScript Object Notation format (JSON) in row-major order
http://www.bom.gov.au/fwo/IDW60801/IDW60801.94608.json